• Join FlightAware (Why Join?)
  • Login
  • US Flag 
11:52AM EST


 

Airport Tracker/Info


-or-


 

Live Flight TrackerFlight Track Log ✈ FIV550 ✈ 14-Jul-2014 ✈ KCPS - KICT

Flight Track Log - Related Links

Times and Time Zones

All times are in EDT time to prevent confusion due to time zone crossing. See the FIV550 flight status page for this flight to view local times or setup timezone preferences in your user account.

Time Position Orientation Groundspeed Altitude Reporting Facility
EDT Latitude Longitude Course Direction KTS MPH feet Rate Location/Type
05:56PM 38.5667 -90.2333 232° Southwest 230 265 3,600  Level Gateway (St. Louis) TRACON
05:57PM 38.5550 -90.3217 260° West 251 289 6,900 3,145 Climbing Kansas City Center
05:58PM 38.5358 -90.4078 254° West 252 290 10,100 2,852 Climbing Kansas City Center
05:59PM 38.5075 -90.4969 248° West 267 307 12,700 2,448 Climbing Kansas City Center
06:00PM 38.4778 -90.6003 250° West 278 320 15,200 2,400 Climbing Kansas City Center
06:01PM 38.7472 -90.6270 232° Southwest  Level FlightAware Approximate
06:01PM 38.4478 -90.7078 250° West 288 331 17,700  Level Kansas City Center
06:02PM 38.4225 -90.7922 249° West 302 348 19,600 2,208 Climbing Kansas City Center
06:03PM 38.3878 -90.9119 250° West 303 349 22,300 2,146 Climbing Kansas City Center
06:04PM 38.3586 -91.0103 249° West 302 348 24,000 1,561 Climbing Kansas City Center
06:05PM 38.3300 -91.1111 250° West 302 348 25,500 1,392 Climbing Kansas City Center
06:06PM 38.2983 -91.2153 249° West 309 356 26,900 1,403 Climbing Kansas City Center
06:07PM 38.2678 -91.3208 250° West 313 360 28,400 1,548 Climbing Kansas City Center
06:08PM 38.2322 -91.4436 250° West 313 360 30,100 1,512 Climbing Kansas City Center
06:09PM 38.2011 -91.5464 249° West 312 359 31,600 1,415 Climbing Kansas City Center
06:10PM 38.1706 -91.6469 249° West 311 358 33,000 1,403 Climbing Kansas City Center
06:11PM 38.1472 -91.7506 254° West 308 354 34,500 1,381 Climbing Kansas City Center
06:12PM 38.1442 -91.8631 268° West 312 359 35,900 732 Climbing Kansas City Center
06:13PM 38.1367 -91.9758 265° West 315 362 36,000 48 Climbing Kansas City Center
06:14PM 38.1261 -92.1292 265° West 351 404 36,000  Level Kansas City Center
06:15PM 38.1197 -92.2558 266° West 363 418 36,000  Level Kansas City Center
06:16PM 38.1106 -92.3756 264° West 346 398 36,000  Level Kansas City Center
06:17PM 38.1033 -92.5028 266° West 357 411 36,000  Level Kansas City Center
06:18PM 38.0931 -92.6278 264° West 357 411 36,000  Level Kansas City Center
06:19PM 38.0817 -92.7694 264° West 357 411 36,000  Level Kansas City Center
06:20PM 38.0728 -92.8942 265° West 356 410 36,000  Level Kansas City Center
06:21PM 38.0639 -93.0175 265° West 355 409 36,000  Level Kansas City Center
06:22PM 38.0544 -93.1408 264° West 354 407 36,000  Level Kansas City Center
06:24PM 38.0450 -93.2647 265° West 352 405 36,000  Level Kansas City Center
06:25PM 38.0336 -93.4131 264° West 353 406 36,000  Level Kansas City Center
06:26PM 38.0231 -93.5367 264° West 352 405 36,000  Level Kansas City Center
06:27PM 38.0133 -93.6594 264° West 352 405 36,000  Level Kansas City Center
06:28PM 38.0044 -93.7839 265° West 352 405 36,000 -452 Level Kansas City Center
06:30PM 37.9844 -94.0306 264° West 352 405 34,600 -802 Descending Kansas City Center
06:31PM 37.9739 -94.1511 264° West 349 402 33,500 -1,230 Descending Kansas City Center
06:32PM 37.9606 -94.2994 264° West 350 403 32,100 -720 Descending Kansas City Center
06:33PM 37.9503 -94.4242 264° West 352 405 32,000 -48 Descending Kansas City Center
06:34PM 37.9389 -94.5519 264° West 359 413 32,000  Level Kansas City Center
06:35PM 37.9272 -94.6781 263° West 360 414 32,000  Level Kansas City Center
06:36PM 37.9167 -94.8042 264° West 360 414 32,000  Level Kansas City Center
06:37PM 37.9050 -94.9319 263° West 361 415 32,000  Level Kansas City Center
06:38PM 37.8933 -95.0611 264° West 364 419 32,000  Level Kansas City Center
06:39PM 37.8803 -95.1981 263° West 364 419 32,000  Level Kansas City Center
06:40PM 37.8686 -95.3233 263° West 364 419 32,000 -1,131 Level Kansas City Center
06:41PM 37.8539 -95.4800 263° West 367 422 29,700 -2,213 Descending Kansas City Center
06:42PM 37.8406 -95.6136 263° West 377 434 27,500 -2,112 Descending Kansas City Center
06:43PM 37.8275 -95.7481 263° West 379 436 25,300 -1,680 Descending Kansas City Center
06:44PM 37.8133 -95.8928 263° West 403 464 24,000 -639 Descending Kansas City Center
06:45PM 37.8000 -96.0300 263° West 400 460 24,000 -689 Level Kansas City Center
06:46PM 37.7861 -96.1714 263° West 392 451 22,600 -1,824 Descending Kansas City Center
06:47PM 37.7719 -96.3033 262° West 384 442 20,200 -2,455 Descending Kansas City Center
06:48PM 37.7639 -96.3703 261° West 375 432 19,000 -2,300 Descending Kansas City Center
06:48PM 37.7594 -96.4328 265° West 376 433 17,900 -2,103 Descending Kansas City Center
06:49PM 37.7458 -96.5575 262° West 364 419 15,600 -2,208 Descending Kansas City Center
06:50PM 37.7322 -96.6792 262° West 347 399 13,300 -2,410 Descending Kansas City Center
06:51PM 37.7172 -96.8100 262° West 335 386 10,700 -2,586 Descending Kansas City Center
06:52PM 37.7022 -96.9103 259° West 279 321 8,300 -2,311 Descending Kansas City Center
06:53PM 37.6842 -97.0006 256° West 265 305 6,000 -2,112 Descending Kansas City Center
06:54PM 37.6617 -97.0914 253° West 268 308 3,900 -1,525 Descending Kansas City Center
06:55PM 37.6417 -97.1844 255° West 262 302 3,000 -806 Descending Kansas City Center
06:55PM 37.6417 -97.1853 270° West 269 310 3,000  Level Kansas City Center
06:56PM 37.6236 -97.2561 252° West 204 235 3,000  Level Kansas City Center
06:57PM 37.6108 -97.3189 256° West 210 242 3,000  Level Kansas City Center
06:58PM 37.6094 -97.3269 258° West 218 251 3,000  Level Kansas City Center
06:58PM 37.5969 -97.3897 256° West 202 232 3,000  Level Kansas City Center
06:59PM 37.5964 -97.3986 265° West 215 247 3,000 -987 Level Kansas City Center
07:00PM 37.6283 -97.4319 320° Northwest 157 181 1,700 -732 Descending Kansas City Center
07:01PM 37.6658 -97.4219 12° North 148 170 1,500 -194 Descending Kansas City Center
07:03PM 37.6499 -97.4331 218° Southwest  Level Estimated
07:10PM 37.6499 -97.4331 218° Southwest  Level Estimated